EAGO2: Mountain Fork Riv, Eagletown,

Data processed at Thu Jan 04 2018 23:39


All information presented herein is the property of the government of the United States of America and may be revised or deleted at any time without prior notice.
Dissemination of this information without the expressed written consent of the Public Affairs Office, Tulsa District U.S. Army Corps of Engineers is strictly prohibited.
These data are gathered electronically and, as presented, have not undergone any form of quality control. These data are not guaranteed to be valid or correct.
Go to home page.
Go to station list.

Upstream stations:

Downstream station:
Previous Day
Next Day
Current Day
    
SHEF ID:       EAGO2     Mountain Fork near Eagletown, OK
STATION TYPE:  

               PRECIP     STAGE  RIV-FLOW  BAT-LOAD
                   in        ft       cfs      volt
              Ccp-Rev   Ccp-Rev   Ccp-Rev   Ccp-Rev
(US/Central)
01/02 00:00      ----      2.07       648     12.81
01/02 01:00      ----      1.98       597     12.81
01/02 02:00      ----      1.89       548     12.81
01/02 03:00      ----      1.81       505     12.81
01/02 04:00      ----      1.74       469     12.73
01/02 05:00      ----      1.68       439     12.73
01/02 06:00      ----      1.62       410     12.73
01/02 07:00      ----      1.56       382     12.73
01/02 08:00      ----      1.51       359     12.73
01/02 09:00      ----      1.46       338     12.81
01/02 10:00      ----      1.36       296     13.05
01/02 11:00      ----      1.64       420     13.37
01/02 12:00      ----      2.67      1031     13.53
01/02 13:00      ----      3.48      1657     13.76
01/02 14:00      ----      3.63      1786     13.53
01/02 15:00      ----      3.52      1691     13.29
01/02 16:00      ----      3.31      1516     13.05
01/02 17:00      ----      3.11      1356     12.97
01/02 18:00      ----      2.93      1219     12.89
01/02 19:00      ----      2.76      1095     12.89
01/02 20:00      ----      2.61       990     12.89
01/02 21:00      ----      2.47       896     12.81
01/02 22:00      ----      2.34       812     12.81
01/02 23:00      ----      2.22       737     12.81